sensor_id;sensor_type;location;lat;lon;timestamp;pressure;altitude;pressure_sealevel;temperature;humidity
57948;BME280;43754;56.992;24.292;2023-04-05T00:02:02;102020.44;;;0.62;100.00
57948;BME280;43754;56.992;24.292;2023-04-05T00:04:36;102022.31;;;0.60;100.00
57948;BME280;43754;56.992;24.292;2023-04-05T00:07:09;102024.75;;;0.63;100.00
57948;BME280;43754;56.992;24.292;2023-04-05T00:09:43;102022.13;;;0.63;100.00
57948;BME280;43754;56.992;24.292;2023-04-05T00:12:15;102014.91;;;0.67;100.00
57948;BME280;43754;56.992;24.292;2023-04-05T00:14:47;102023.59;;;0.69;100.00
57948;BME280;43754;56.992;24.292;2023-04-05T00:17:19;102021.56;;;0.74;100.00
57948;BME280;43754;56.992;24.292;2023-04-05T00:19:52;102019.50;;;0.79;100.00
57948;BME280;43754;56.992;24.292;2023-04-05T00:22:28;102018.66;;;0.78;100.00
57948;BME280;43754;56.992;24.292;2023-04-05T00:25:02;102022.22;;;0.77;100.00
57948;BME280;43754;56.992;24.292;2023-04-05T00:27:35;102029.22;;;0.78;100.00
57948;BME280;43754;56.992;24.292;2023-04-05T00:30:08;102025.63;;;0.79;100.00
57948;BME280;43754;56.992;24.292;2023-04-05T00:32:40;102022.03;;;0.80;100.00
57948;BME280;43754;56.992;24.292;2023-04-05T00:35:13;102023.81;;;0.80;100.00
57948;BME280;43754;56.992;24.292;2023-04-05T00:37:45;102028.19;;;0.81;100.00
57948;BME280;43754;56.992;24.292;2023-04-05T00:40:17;102018.47;;;0.81;100.00
57948;BME280;43754;56.992;24.292;2023-04-05T00:42:50;102020.34;;;0.79;100.00
57948;BME280;43754;56.992;24.292;2023-04-05T00:45:22;102016.16;;;0.75;100.00
57948;BME280;43754;56.992;24.292;2023-04-05T00:47:54;102016.34;;;0.72;100.00
57948;BME280;43754;56.992;24.292;2023-04-05T00:50:28;102012.84;;;0.72;100.00
57948;BME280;43754;56.992;24.292;2023-04-05T00:53:01;102011.31;;;0.68;100.00
57948;BME280;43754;56.992;24.292;2023-04-05T00:55:35;102007.25;;;0.62;100.00
57948;BME280;43754;56.992;24.292;2023-04-05T00:58:07;102006.91;;;0.68;100.00
57948;BME280;43754;56.992;24.292;2023-04-05T01:00:41;102001.72;;;0.67;100.00
57948;BME280;43754;56.992;24.292;2023-04-05T01:03:14;102008.88;;;0.65;100.00
57948;BME280;43754;56.992;24.292;2023-04-05T01:05:54;102005.56;;;0.61;100.00
57948;BME280;43754;56.992;24.292;2023-04-05T01:08:34;102006.66;;;0.57;100.00
57948;BME280;43754;56.992;24.292;2023-04-05T01:11:08;102005.19;;;0.52;100.00
57948;BME280;43754;56.992;24.292;2023-04-05T01:13:44;102004.19;;;0.54;100.00
57948;BME280;43754;56.992;24.292;2023-04-05T01:16:16;102008.75;;;0.51;100.00
57948;BME280;43754;56.992;24.292;2023-04-05T01:18:48;102004.03;;;0.57;100.00
57948;BME280;43754;56.992;24.292;2023-04-05T01:25:08;101998.97;;;0.68;100.00
57948;BME280;43754;56.992;24.292;2023-04-05T01:28:00;101998.81;;;0.71;100.00
57948;BME280;43754;56.992;24.292;2023-04-05T01:30:48;101995.66;;;0.65;100.00
57948;BME280;43754;56.992;24.292;2023-04-05T01:33:26;101998.97;;;0.68;100.00
57948;BME280;43754;56.992;24.292;2023-04-05T01:36:02;101995.34;;;0.71;100.00
57948;BME280;43754;56.992;24.292;2023-04-05T01:38:38;101998.56;;;0.76;100.00
57948;BME280;43754;56.992;24.292;2023-04-05T01:41:11;101995.34;;;0.71;100.00
57948;BME280;43754;56.992;24.292;2023-04-05T01:43:43;101992.97;;;0.66;100.00
57948;BME280;43754;56.992;24.292;2023-04-05T01:46:16;101989.53;;;0.64;100.00
57948;BME280;43754;56.992;24.292;2023-04-05T01:48:49;101994.50;;;0.70;100.00
57948;BME280;43754;56.992;24.292;2023-04-05T01:51:21;101994.22;;;0.75;100.00
57948;BME280;43754;56.992;24.292;2023-04-05T01:53:53;101992.69;;;0.71;100.00
57948;BME280;43754;56.992;24.292;2023-04-05T01:56:25;101985.38;;;0.60;100.00
57948;BME280;43754;56.992;24.292;2023-04-05T01:58:58;101992.78;;;0.54;100.00
57948;BME280;43754;56.992;24.292;2023-04-05T02:01:31;101986.06;;;0.48;100.00
57948;BME280;43754;56.992;24.292;2023-04-05T02:04:03;101990.91;;;0.56;100.00
57948;BME280;43754;56.992;24.292;2023-04-05T02:06:35;101989.72;;;0.61;100.00
57948;BME280;43754;56.992;24.292;2023-04-05T02:09:07;101988.38;;;0.54;100.00
57948;BME280;43754;56.992;24.292;2023-04-05T02:11:39;101986.84;;;0.50;100.00
57948;BME280;43754;56.992;24.292;2023-04-05T02:14:11;101991.41;;;0.46;100.00
57948;BME280;43754;56.992;24.292;2023-04-05T02:16:45;101990.56;;;0.46;100.00
57948;BME280;43754;56.992;24.292;2023-04-05T02:19:17;101991.41;;;0.46;100.00
57948;BME280;43754;56.992;24.292;2023-04-05T02:21:54;101997.03;;;0.56;100.00
57948;BME280;43754;56.992;24.292;2023-04-05T02:24:26;102002.72;;;0.64;100.00
57948;BME280;43754;56.992;24.292;2023-04-05T02:26:58;102005.13;;;0.69;100.00
57948;BME280;43754;56.992;24.292;2023-04-05T02:29:30;102008.09;;;0.63;100.00
57948;BME280;43754;56.992;24.292;2023-04-05T02:32:04;101997.63;;;0.61;100.00
57948;BME280;43754;56.992;24.292;2023-04-05T02:34:36;101998.81;;;0.56;100.00
57948;BME280;43754;56.992;24.292;2023-04-05T02:37:12;102001.56;;;0.54;100.00
57948;BME280;43754;56.992;24.292;2023-04-05T02:39:44;101990.16;;;0.54;100.00
57948;BME280;43754;56.992;24.292;2023-04-05T02:42:16;101993.97;;;0.48;100.00
57948;BME280;43754;56.992;24.292;2023-04-05T02:44:49;101989.47;;;0.50;100.00
57948;BME280;43754;56.992;24.292;2023-04-05T02:47:22;101989.19;;;0.55;100.00
57948;BME280;43754;56.992;24.292;2023-04-05T02:49:59;101987.16;;;0.60;100.00
57948;BME280;43754;56.992;24.292;2023-04-05T02:52:36;101991.25;;;0.65;100.00
57948;BME280;43754;56.992;24.292;2023-04-05T02:55:08;101991.44;;;0.62;100.00
57948;BME280;43754;56.992;24.292;2023-04-05T02:57:42;101986.91;;;0.64;100.00
57948;BME280;43754;56.992;24.292;2023-04-05T03:00:29;101992.19;;;0.64;100.00
57948;BME280;43754;56.992;24.292;2023-04-05T03:03:05;101991.44;;;0.62;100.00
57948;BME280;43754;56.992;24.292;2023-04-05T03:05:41;102000.75;;;0.68;100.00
57948;BME280;43754;56.992;24.292;2023-04-05T03:08:17;101991.06;;;0.68;100.00
57948;BME280;43754;56.992;24.292;2023-04-05T03:11:00;101987.13;;;0.75;100.00
57948;BME280;43754;56.992;24.292;2023-04-05T03:13:32;101994.22;;;0.75;100.00
57948;BME280;43754;56.992;24.292;2023-04-05T03:16:07;101988.44;;;0.68;100.00
57948;BME280;43754;56.992;24.292;2023-04-05T03:18:44;101993.66;;;0.54;100.00
57948;BME280;43754;56.992;24.292;2023-04-05T03:21:17;101987.25;;;0.58;100.00
57948;BME280;43754;56.992;24.292;2023-04-05T03:23:58;101990.91;;;0.56;100.00
57948;BME280;43754;56.992;24.292;2023-04-05T03:26:39;101980.16;;;0.59;100.00
57948;BME280;43754;56.992;24.292;2023-04-05T03:29:11;101990.81;;;0.57;100.00
57948;BME280;43754;56.992;24.292;2023-04-05T03:31:43;101989.03;;;0.58;100.00
57948;BME280;43754;56.992;24.292;2023-04-05T03:34:20;101979.25;;;0.60;100.00
57948;BME280;43754;56.992;24.292;2023-04-05T03:36:54;101987.34;;;0.57;100.00
57948;BME280;43754;56.992;24.292;2023-04-05T03:39:39;101984.63;;;0.58;100.00
57948;BME280;43754;56.992;24.292;2023-04-05T03:42:11;101980.16;;;0.59;100.00
57948;BME280;43754;56.992;24.292;2023-04-05T03:44:43;101986.31;;;0.59;100.00
57948;BME280;43754;56.992;24.292;2023-04-05T03:47:15;101987.75;;;0.65;100.00
57948;BME280;43754;56.992;24.292;2023-04-05T03:49:49;101982.56;;;0.63;100.00
57948;BME280;43754;56.992;24.292;2023-04-05T03:52:21;101978.38;;;0.59;100.00
57948;BME280;43754;56.992;24.292;2023-04-05T03:54:53;101990.41;;;0.65;100.00
57948;BME280;43754;56.992;24.292;2023-04-05T03:57:28;101980.88;;;0.62;100.00
57948;BME280;43754;56.992;24.292;2023-04-05T04:00:05;101983.41;;;0.64;100.00
57948;BME280;43754;56.992;24.292;2023-04-05T04:02:49;101984.19;;;0.66;100.00
57948;BME280;43754;56.992;24.292;2023-04-05T04:05:26;101985.91;;;0.67;100.00
57948;BME280;43754;56.992;24.292;2023-04-05T04:07:58;101979.00;;;0.64;100.00
57948;BME280;43754;56.992;24.292;2023-04-05T04:10:30;101994.63;;;0.67;100.00
57948;BME280;43754;56.992;24.292;2023-04-05T04:13:02;101993.53;;;0.71;100.00
57948;BME280;43754;56.992;24.292;2023-04-05T04:15:37;101993.19;;;0.77;100.00
57948;BME280;43754;56.992;24.292;2023-04-05T04:18:26;101985.78;;;0.84;100.00
57948;BME280;43754;56.992;24.292;2023-04-05T04:21:19;101984.75;;;0.86;100.00
57948;BME280;43754;56.992;24.292;2023-04-05T04:24:10;101991.22;;;0.81;100.00
57948;BME280;43754;56.992;24.292;2023-04-05T04:27:12;101993.78;;;0.82;100.00
57948;BME280;43754;56.992;24.292;2023-04-05T04:29:48;101981.75;;;0.92;100.00
57948;BME280;43754;56.992;24.292;2023-04-05T04:32:51;101993.69;;;1.00;100.00
57948;BME280;43754;56.992;24.292;2023-04-05T04:35:45;101992.19;;;1.10;100.00
57948;BME280;43754;56.992;24.292;2023-04-05T04:38:39;101993.13;;;1.09;100.00
57948;BME280;43754;56.992;24.292;2023-04-05T04:41:13;101985.41;;;1.06;100.00
57948;BME280;43754;56.992;24.292;2023-04-05T04:43:54;101994.88;;;0.94;100.00
57948;BME280;43754;56.992;24.292;2023-04-05T04:46:35;101991.13;;;0.98;100.00
57948;BME280;43754;56.992;24.292;2023-04-05T04:49:19;101996.16;;;1.03;100.00
57948;BME280;43754;56.992;24.292;2023-04-05T04:51:52;101999.81;;;1.00;100.00
57948;BME280;43754;56.992;24.292;2023-04-05T04:54:28;102002.00;;;1.08;100.00
57948;BME280;43754;56.992;24.292;2023-04-05T04:57:00;101997.47;;;1.10;100.00
57948;BME280;43754;56.992;24.292;2023-04-05T04:59:33;102001.50;;;1.17;100.00
57948;BME280;43754;56.992;24.292;2023-04-05T05:02:08;101995.63;;;1.12;100.00
57948;BME280;43754;56.992;24.292;2023-04-05T05:04:41;101995.44;;;1.15;100.00
57948;BME280;43754;56.992;24.292;2023-04-05T05:07:14;101998.56;;;1.21;100.00
57948;BME280;43754;56.992;24.292;2023-04-05T05:09:47;102001.19;;;1.21;100.00
57948;BME280;43754;56.992;24.292;2023-04-05T05:12:23;101999.50;;;1.20;100.00
57948;BME280;43754;56.992;24.292;2023-04-05T05:14:55;102005.94;;;1.30;100.00
57948;BME280;43754;56.992;24.292;2023-04-05T05:17:28;102007.72;;;1.30;100.00
57948;BME280;43754;56.992;24.292;2023-04-05T05:20:00;102006.06;;;1.29;100.00
57948;BME280;43754;56.992;24.292;2023-04-05T05:22:32;102009.09;;;1.37;100.00
57948;BME280;43754;56.992;24.292;2023-04-05T05:25:07;102005.91;;;1.46;100.00
57948;BME280;43754;56.992;24.292;2023-04-05T05:27:40;102006.19;;;1.56;100.00
57948;BME280;43754;56.992;24.292;2023-04-05T05:30:12;102012.72;;;1.50;100.00
57948;BME280;43754;56.992;24.292;2023-04-05T05:32:44;102011.69;;;1.53;100.00
57948;BME280;43754;56.992;24.292;2023-04-05T05:35:17;102015.75;;;1.58;100.00
57948;BME280;43754;56.992;24.292;2023-04-05T05:37:49;102007.91;;;1.57;100.00
57948;BME280;43754;56.992;24.292;2023-04-05T05:40:22;102014.25;;;1.54;100.00
57948;BME280;43754;56.992;24.292;2023-04-05T05:42:56;102006.31;;;1.54;100.00
57948;BME280;43754;56.992;24.292;2023-04-05T05:45:28;102017.63;;;1.56;100.00
57948;BME280;43754;56.992;24.292;2023-04-05T05:48:01;102019.41;;;1.56;100.00
57948;BME280;43754;56.992;24.292;2023-04-05T05:50:33;102022.72;;;1.59;100.00
57948;BME280;43754;56.992;24.292;2023-04-05T05:53:05;102018.22;;;1.75;100.00
57948;BME280;43754;56.992;24.292;2023-04-05T05:55:38;102023.16;;;1.81;100.00
57948;BME280;43754;56.992;24.292;2023-04-05T05:58:10;102022.59;;;1.91;100.00
57948;BME280;43754;56.992;24.292;2023-04-05T06:00:42;102022.69;;;2.03;100.00
57948;BME280;43754;56.992;24.292;2023-04-05T06:03:14;102026.75;;;2.09;100.00
57948;BME280;43754;56.992;24.292;2023-04-05T06:05:51;102024.59;;;2.15;100.00
57948;BME280;43754;56.992;24.292;2023-04-05T06:08:23;102028.75;;;2.19;100.00
57948;BME280;43754;56.992;24.292;2023-04-05T06:10:57;102026.94;;;2.34;100.00
57948;BME280;43754;56.992;24.292;2023-04-05T06:13:29;102030.44;;;2.49;100.00
57948;BME280;43754;56.992;24.292;2023-04-05T06:16:01;102033.88;;;2.63;100.00
57948;BME280;43754;56.992;24.292;2023-04-05T06:18:33;102027.47;;;2.94;100.00
57948;BME280;43754;56.992;24.292;2023-04-05T06:21:05;102033.44;;;2.98;100.00
57948;BME280;43754;56.992;24.292;2023-04-05T06:23:37;102036.84;;;3.00;100.00
57948;BME280;43754;56.992;24.292;2023-04-05T06:26:16;102030.50;;;2.88;100.00
57948;BME280;43754;56.992;24.292;2023-04-05T06:28:49;102033.59;;;2.68;100.00
57948;BME280;43754;56.992;24.292;2023-04-05T06:31:25;102032.38;;;2.59;100.00
57948;BME280;43754;56.992;24.292;2023-04-05T06:33:58;102030.22;;;2.66;100.00
57948;BME280;43754;56.992;24.292;2023-04-05T06:36:30;102030.72;;;2.85;100.00
57948;BME280;43754;56.992;24.292;2023-04-05T06:39:02;102036.63;;;3.03;100.00
57948;BME280;43754;56.992;24.292;2023-04-05T06:41:36;102021.44;;;3.19;100.00
57948;BME280;43754;56.992;24.292;2023-04-05T06:44:08;102025.69;;;3.34;100.00
57948;BME280;43754;56.992;24.292;2023-04-05T06:46:40;102024.53;;;3.38;100.00
57948;BME280;43754;56.992;24.292;2023-04-05T06:49:12;102035.06;;;3.40;100.00
57948;BME280;43754;56.992;24.292;2023-04-05T06:51:44;102036.50;;;3.31;100.00
57948;BME280;43754;56.992;24.292;2023-04-05T06:54:16;102032.28;;;3.29;100.00
57948;BME280;43754;56.992;24.292;2023-04-05T06:56:50;102033.53;;;3.23;100.00
57948;BME280;43754;56.992;24.292;2023-04-05T06:59:22;102034.53;;;3.47;100.00
57948;BME280;43754;56.992;24.292;2023-04-05T07:01:54;102033.53;;;3.75;100.00
57948;BME280;43754;56.992;24.292;2023-04-05T07:04:26;102036.41;;;3.97;100.00
57948;BME280;43754;56.992;24.292;2023-04-05T07:07:03;102032.91;;;4.09;100.00
57948;BME280;43754;56.992;24.292;2023-04-05T07:09:36;102045.13;;;4.12;100.00
57948;BME280;43754;56.992;24.292;2023-04-05T07:12:11;102043.31;;;3.87;100.00
57948;BME280;43754;56.992;24.292;2023-04-05T07:14:43;102046.03;;;3.73;100.00
57948;BME280;43754;56.992;24.292;2023-04-05T07:17:16;102049.63;;;3.72;100.00
57948;BME280;43754;56.992;24.292;2023-04-05T07:19:48;102050.72;;;3.69;100.00
57948;BME280;43754;56.992;24.292;2023-04-05T07:22:20;102056.97;;;3.68;100.00
57948;BME280;43754;56.992;24.292;2023-04-05T07:24:52;102056.94;;;3.56;100.00
57948;BME280;43754;56.992;24.292;2023-04-05T07:27:25;102055.75;;;3.47;100.00
57948;BME280;43754;56.992;24.292;2023-04-05T07:29:57;102058.59;;;3.44;100.00
57948;BME280;43754;56.992;24.292;2023-04-05T07:32:29;102068.91;;;3.49;100.00
57948;BME280;43754;56.992;24.292;2023-04-05T07:35:01;102066.50;;;3.32;100.00
57948;BME280;43754;56.992;24.292;2023-04-05T07:37:34;102076.56;;;3.27;100.00
57948;BME280;43754;56.992;24.292;2023-04-05T07:40:07;102074.72;;;3.14;100.00
57948;BME280;43754;56.992;24.292;2023-04-05T07:42:43;102071.63;;;3.08;100.00
57948;BME280;43754;56.992;24.292;2023-04-05T07:45:15;102081.81;;;3.14;100.00
57948;BME280;43754;56.992;24.292;2023-04-05T07:47:47;102082.66;;;3.14;100.00
57948;BME280;43754;56.992;24.292;2023-04-05T07:50:19;102090.03;;;3.09;100.00
57948;BME280;43754;56.992;24.292;2023-04-05T07:52:51;102079.16;;;3.14;100.00
57948;BME280;43754;56.992;24.292;2023-04-05T07:55:23;102085.47;;;3.26;100.00
57948;BME280;43754;56.992;24.292;2023-04-05T07:57:56;102081.50;;;3.45;100.00
57948;BME280;43754;56.992;24.292;2023-04-05T08:00:29;102088.34;;;3.62;100.00
57948;BME280;43754;56.992;24.292;2023-04-05T08:03:01;102097.19;;;3.75;100.00
57948;BME280;43754;56.992;24.292;2023-04-05T08:05:33;102091.25;;;3.97;100.00
57948;BME280;43754;56.992;24.292;2023-04-05T08:08:05;102088.19;;;4.03;100.00
57948;BME280;43754;56.992;24.292;2023-04-05T08:10:39;102084.47;;;4.18;100.00
57948;BME280;43754;56.992;24.292;2023-04-05T08:13:13;102094.78;;;4.23;100.00
57948;BME280;43754;56.992;24.292;2023-04-05T08:15:45;102095.84;;;3.95;100.00
57948;BME280;43754;56.992;24.292;2023-04-05T08:18:17;102092.19;;;3.70;100.00
57948;BME280;43754;56.992;24.292;2023-04-05T08:20:50;102100.66;;;3.63;100.00
57948;BME280;43754;56.992;24.292;2023-04-05T08:23:23;102107.41;;;3.54;100.00
57948;BME280;43754;56.992;24.292;2023-04-05T08:25:55;102106.44;;;3.55;100.00
57948;BME280;43754;56.992;24.292;2023-04-05T08:28:28;102113.06;;;3.62;100.00
57948;BME280;43754;56.992;24.292;2023-04-05T08:31:00;102107.50;;;3.80;100.00
57948;BME280;43754;56.992;24.292;2023-04-05T08:33:32;102116.50;;;3.90;100.00
57948;BME280;43754;56.992;24.292;2023-04-05T08:36:05;102116.09;;;3.96;100.00
57948;BME280;43754;56.992;24.292;2023-04-05T08:38:37;102118.34;;;4.14;100.00
57948;BME280;43754;56.992;24.292;2023-04-05T08:41:15;102126.09;;;4.30;100.00
57948;BME280;43754;56.992;24.292;2023-04-05T08:43:54;102127.16;;;4.15;100.00
57948;BME280;43754;56.992;24.292;2023-04-05T08:46:29;102129.41;;;4.21;100.00
57948;BME280;43754;56.992;24.292;2023-04-05T08:49:04;102135.97;;;4.15;100.00
57948;BME280;43754;56.992;24.292;2023-04-05T08:51:38;102132.25;;;4.18;100.00
57948;BME280;43754;56.992;24.292;2023-04-05T08:54:10;102132.56;;;4.51;100.00
57948;BME280;43754;56.992;24.292;2023-04-05T08:56:45;102138.72;;;4.64;100.00
57948;BME280;43754;56.992;24.292;2023-04-05T08:59:20;102144.03;;;4.64;100.00
57948;BME280;43754;56.992;24.292;2023-04-05T09:01:54;102142.34;;;4.63;100.00
57948;BME280;43754;56.992;24.292;2023-04-05T09:04:28;102139.19;;;4.46;100.00
57948;BME280;43754;56.992;24.292;2023-04-05T09:07:05;102149.34;;;4.39;100.00
57948;BME280;43754;56.992;24.292;2023-04-05T09:09:37;102149.91;;;4.57;100.00
57948;BME280;43754;56.992;24.292;2023-04-05T09:12:10;102145.75;;;4.66;100.00
57948;BME280;43754;56.992;24.292;2023-04-05T09:14:44;102148.28;;;4.80;100.00
57948;BME280;43754;56.992;24.292;2023-04-05T09:17:17;102157.41;;;4.88;100.00
57948;BME280;43754;56.992;24.292;2023-04-05T09:19:49;102162.59;;;4.90;100.00
57948;BME280;43754;56.992;24.292;2023-04-05T09:22:21;102161.97;;;4.99;100.00
57948;BME280;43754;56.992;24.292;2023-04-05T09:24:53;102159.66;;;4.82;100.00
57948;BME280;43754;56.992;24.292;2023-04-05T09:27:27;102169.88;;;4.75;100.00
57948;BME280;43754;56.992;24.292;2023-04-05T09:30:19;102164.09;;;4.81;100.00
57948;BME280;43754;56.992;24.292;2023-04-05T09:32:53;102174.09;;;4.90;100.00
57948;BME280;43754;56.992;24.292;2023-04-05T09:35:27;102175.28;;;4.74;100.00
57948;BME280;43754;56.992;24.292;2023-04-05T09:38:01;102171.03;;;4.84;100.00
57948;BME280;43754;56.992;24.292;2023-04-05T09:40:43;102172.84;;;4.83;100.00
57948;BME280;43754;56.992;24.292;2023-04-05T09:43:36;102176.94;;;5.00;99.68
57948;BME280;43754;56.992;24.292;2023-04-05T09:46:28;102183.50;;;5.20;98.60
57948;BME280;43754;56.992;24.292;2023-04-05T09:49:05;102182.34;;;5.11;100.00
57948;BME280;43754;56.992;24.292;2023-04-05T09:51:40;102185.31;;;5.06;100.00
57948;BME280;43754;56.992;24.292;2023-04-05T09:54:15;102190.88;;;5.03;100.00
57948;BME280;43754;56.992;24.292;2023-04-05T09:56:53;102191.59;;;5.05;99.99
57948;BME280;43754;56.992;24.292;2023-04-05T09:59:25;102196.06;;;5.18;99.20
57948;BME280;43754;56.992;24.292;2023-04-05T10:01:58;102196.09;;;5.41;98.73
57948;BME280;43754;56.992;24.292;2023-04-05T10:04:37;102203.56;;;5.36;97.58
57948;BME280;43754;56.992;24.292;2023-04-05T10:07:11;102205.94;;;5.52;97.57
57948;BME280;43754;56.992;24.292;2023-04-05T10:09:45;102208.25;;;5.56;99.62
57948;BME280;43754;56.992;24.292;2023-04-05T10:12:23;102205.31;;;5.72;95.34
57948;BME280;43754;56.992;24.292;2023-04-05T10:14:57;102208.84;;;5.73;95.86
57948;BME280;43754;56.992;24.292;2023-04-05T10:17:38;102215.25;;;5.70;99.57
57948;BME280;43754;56.992;24.292;2023-04-05T10:20:13;102215.63;;;5.53;96.01
57948;BME280;43754;56.992;24.292;2023-04-05T10:22:59;102215.81;;;5.63;96.17
57948;BME280;43754;56.992;24.292;2023-04-05T10:25:48;102216.69;;;5.87;96.66
57948;BME280;43754;56.992;24.292;2023-04-05T10:28:29;102210.06;;;6.27;93.51
57948;BME280;43754;56.992;24.292;2023-04-05T10:31:09;102206.72;;;6.36;91.89
57948;BME280;43754;56.992;24.292;2023-04-05T10:33:46;102213.78;;;6.60;91.94
57948;BME280;43754;56.992;24.292;2023-04-05T10:36:23;102211.56;;;6.88;90.74
57948;BME280;43754;56.992;24.292;2023-04-05T10:39:00;102213.81;;;7.26;89.27
57948;BME280;43754;56.992;24.292;2023-04-05T10:41:39;102217.94;;;7.42;89.38
57948;BME280;43754;56.992;24.292;2023-04-05T10:44:13;102214.50;;;7.62;87.08
57948;BME280;43754;56.992;24.292;2023-04-05T10:46:57;102217.31;;;7.49;88.37
57948;BME280;43754;56.992;24.292;2023-04-05T10:49:39;102216.75;;;7.12;85.00
57948;BME280;43754;56.992;24.292;2023-04-05T10:52:15;102223.88;;;6.67;87.81
57948;BME280;43754;56.992;24.292;2023-04-05T10:54:48;102223.72;;;6.69;89.74
57948;BME280;43754;56.992;24.292;2023-04-05T10:57:21;102226.56;;;7.01;88.53
57948;BME280;43754;56.992;24.292;2023-04-05T10:59:55;102224.97;;;7.31;87.18
57948;BME280;43754;56.992;24.292;2023-04-05T11:02:27;102224.22;;;7.52;83.15
57948;BME280;43754;56.992;24.292;2023-04-05T11:05:04;102227.28;;;7.36;80.74
57948;BME280;43754;56.992;24.292;2023-04-05T11:07:42;102227.16;;;6.93;81.86
57948;BME280;43754;56.992;24.292;2023-04-05T11:10:16;102233.47;;;7.03;81.21
57948;BME280;43754;56.992;24.292;2023-04-05T11:13:08;102229.81;;;7.26;83.01
57948;BME280;43754;56.992;24.292;2023-04-05T11:15:41;102238.63;;;7.60;84.75
57948;BME280;43754;56.992;24.292;2023-04-05T11:18:20;102236.28;;;7.78;80.57
57948;BME280;43754;56.992;24.292;2023-04-05T11:21:06;102229.81;;;7.49;80.52
57948;BME280;43754;56.992;24.292;2023-04-05T11:24:03;102228.38;;;7.11;81.33
57948;BME280;43754;56.992;24.292;2023-04-05T11:26:53;102230.06;;;7.23;80.60
57948;BME280;43754;56.992;24.292;2023-04-05T11:29:46;102228.63;;;7.42;80.87
57948;BME280;43754;56.992;24.292;2023-04-05T11:32:22;102223.13;;;7.54;82.45
57948;BME280;43754;56.992;24.292;2023-04-05T11:34:58;102235.91;;;7.82;81.56
57948;BME280;43754;56.992;24.292;2023-04-05T11:37:54;102232.63;;;7.90;79.78
57948;BME280;43754;56.992;24.292;2023-04-05T11:40:27;102226.63;;;7.66;81.45
57948;BME280;43754;56.992;24.292;2023-04-05T11:43:02;102238.00;;;7.79;79.63
57948;BME280;43754;56.992;24.292;2023-04-05T11:45:38;102239.16;;;7.97;78.20
57948;BME280;43754;56.992;24.292;2023-04-05T11:48:11;102251.94;;;8.14;77.69
57948;BME280;43754;56.992;24.292;2023-04-05T11:50:46;102241.50;;;8.54;77.98
57948;BME280;43754;56.992;24.292;2023-04-05T11:53:20;102244.06;;;8.86;75.43
57948;BME280;43754;56.992;24.292;2023-04-05T11:55:52;102247.03;;;8.62;74.61
57948;BME280;43754;56.992;24.292;2023-04-05T11:58:25;102241.28;;;8.46;75.67
57948;BME280;43754;56.992;24.292;2023-04-05T12:01:00;102243.03;;;8.36;74.96
57948;BME280;43754;56.992;24.292;2023-04-05T12:03:33;102237.88;;;8.86;74.44
57948;BME280;43754;56.992;24.292;2023-04-05T12:06:06;102241.94;;;9.41;72.58
57948;BME280;43754;56.992;24.292;2023-04-05T12:08:41;102241.56;;;9.55;69.51
57948;BME280;43754;56.992;24.292;2023-04-05T12:11:13;102238.78;;;9.76;67.18
57948;BME280;43754;56.992;24.292;2023-04-05T12:13:45;102240.47;;;9.67;68.39
57948;BME280;43754;56.992;24.292;2023-04-05T12:16:17;102242.13;;;9.18;68.63
57948;BME280;43754;56.992;24.292;2023-04-05T12:18:52;102239.72;;;9.15;68.71
57948;BME280;43754;56.992;24.292;2023-04-05T12:21:25;102239.63;;;8.96;67.22
57948;BME280;43754;56.992;24.292;2023-04-05T12:23:59;102235.94;;;8.88;70.08
57948;BME280;43754;56.992;24.292;2023-04-05T12:26:33;102232.59;;;8.95;68.61
57948;BME280;43754;56.992;24.292;2023-04-05T12:29:05;102234.75;;;9.11;67.24
57948;BME280;43754;56.992;24.292;2023-04-05T12:31:38;102243.47;;;9.03;67.35
57948;BME280;43754;56.992;24.292;2023-04-05T12:34:13;102238.06;;;9.24;67.04
57948;BME280;43754;56.992;24.292;2023-04-05T12:36:45;102235.06;;;8.87;67.23
57948;BME280;43754;56.992;24.292;2023-04-05T12:39:20;102235.66;;;8.91;65.83
57948;BME280;43754;56.992;24.292;2023-04-05T12:41:55;102238.28;;;8.60;66.88
57948;BME280;43754;56.992;24.292;2023-04-05T12:44:28;102237.19;;;8.42;68.00
57948;BME280;43754;56.992;24.292;2023-04-05T12:47:01;102240.72;;;8.43;68.98
57948;BME280;43754;56.992;24.292;2023-04-05T12:49:36;102243.66;;;7.97;68.16
57948;BME280;43754;56.992;24.292;2023-04-05T12:52:08;102244.16;;;7.91;70.77
57948;BME280;43754;56.992;24.292;2023-04-05T12:54:52;102239.03;;;7.99;69.60
57948;BME280;43754;56.992;24.292;2023-04-05T12:57:29;102244.84;;;8.04;68.89
57948;BME280;43754;56.992;24.292;2023-04-05T13:00:02;102246.50;;;7.84;70.65
57948;BME280;43754;56.992;24.292;2023-04-05T13:02:34;102240.03;;;7.86;70.33
57948;BME280;43754;56.992;24.292;2023-04-05T13:05:07;102244.63;;;7.96;70.01
57948;BME280;43754;56.992;24.292;2023-04-05T13:07:39;102246.56;;;7.94;70.58
57948;BME280;43754;56.992;24.292;2023-04-05T13:10:13;102249.16;;;7.84;69.94
57948;BME280;43754;56.992;24.292;2023-04-05T13:12:45;102247.41;;;7.94;68.74
57948;BME280;43754;56.992;24.292;2023-04-05T13:15:18;102249.00;;;7.85;68.79
57948;BME280;43754;56.992;24.292;2023-04-05T13:17:50;102250.66;;;7.98;68.97
57948;BME280;43754;56.992;24.292;2023-04-05T13:20:24;102248.84;;;8.09;68.48
57948;BME280;43754;56.992;24.292;2023-04-05T13:22:56;102247.13;;;8.08;67.41
57948;BME280;43754;56.992;24.292;2023-04-05T13:25:29;102256.78;;;8.31;67.71
57948;BME280;43754;56.992;24.292;2023-04-05T13:28:01;102247.66;;;8.23;66.99